sensor_id;sensor_type;location;lat;lon;timestamp;temperature;humidity
8979;DHT22;4524;51.364;5.448;2023-04-15T00:02:18;8.80;99.90
8979;DHT22;4524;51.364;5.448;2023-04-15T00:04:48;8.80;99.90
8979;DHT22;4524;51.364;5.448;2023-04-15T00:07:16;8.70;99.90
8979;DHT22;4524;51.364;5.448;2023-04-15T00:09:44;8.60;99.90
8979;DHT22;4524;51.364;5.448;2023-04-15T00:12:11;8.60;99.90
8979;DHT22;4524;51.364;5.448;2023-04-15T00:14:39;8.60;99.90
8979;DHT22;4524;51.364;5.448;2023-04-15T00:17:07;8.60;99.90
8979;DHT22;4524;51.364;5.448;2023-04-15T00:19:35;8.60;99.90
8979;DHT22;4524;51.364;5.448;2023-04-15T00:22:05;8.70;99.90
8979;DHT22;4524;51.364;5.448;2023-04-15T00:24:33;8.70;99.90
8979;DHT22;4524;51.364;5.448;2023-04-15T00:27:01;8.70;99.90
8979;DHT22;4524;51.364;5.448;2023-04-15T00:29:30;8.70;99.90
8979;DHT22;4524;51.364;5.448;2023-04-15T00:31:58;8.70;99.90
8979;DHT22;4524;51.364;5.448;2023-04-15T00:34:26;8.70;99.90
8979;DHT22;4524;51.364;5.448;2023-04-15T00:36:54;8.70;99.90
8979;DHT22;4524;51.364;5.448;2023-04-15T00:39:23;8.70;99.90
8979;DHT22;4524;51.364;5.448;2023-04-15T00:41:52;8.70;99.90
8979;DHT22;4524;51.364;5.448;2023-04-15T00:44:20;8.70;99.90
8979;DHT22;4524;51.364;5.448;2023-04-15T00:46:50;8.70;99.90
8979;DHT22;4524;51.364;5.448;2023-04-15T00:49:18;8.60;99.90
8979;DHT22;4524;51.364;5.448;2023-04-15T00:51:46;8.60;99.90
8979;DHT22;4524;51.364;5.448;2023-04-15T00:54:14;8.60;99.90
8979;DHT22;4524;51.364;5.448;2023-04-15T00:56:44;8.60;99.90
8979;DHT22;4524;51.364;5.448;2023-04-15T00:59:13;8.50;99.90
8979;DHT22;4524;51.364;5.448;2023-04-15T01:01:41;8.50;99.90
8979;DHT22;4524;51.364;5.448;2023-04-15T01:04:11;8.50;99.90
8979;DHT22;4524;51.364;5.448;2023-04-15T01:06:39;8.40;99.90
8979;DHT22;4524;51.364;5.448;2023-04-15T01:09:07;8.40;99.90
8979;DHT22;4524;51.364;5.448;2023-04-15T01:11:36;8.40;99.90
8979;DHT22;4524;51.364;5.448;2023-04-15T01:14:09;8.50;99.90
8979;DHT22;4524;51.364;5.448;2023-04-15T01:16:37;8.40;99.90
8979;DHT22;4524;51.364;5.448;2023-04-15T01:19:07;8.40;99.90
8979;DHT22;4524;51.364;5.448;2023-04-15T01:21:36;8.30;99.90
8979;DHT22;4524;51.364;5.448;2023-04-15T01:24:08;8.30;99.90
8979;DHT22;4524;51.364;5.448;2023-04-15T01:26:38;8.40;99.90
8979;DHT22;4524;51.364;5.448;2023-04-15T01:29:07;8.40;99.90
8979;DHT22;4524;51.364;5.448;2023-04-15T01:31:35;8.30;99.90
8979;DHT22;4524;51.364;5.448;2023-04-15T01:34:03;8.30;99.90
8979;DHT22;4524;51.364;5.448;2023-04-15T01:36:31;8.30;99.90
8979;DHT22;4524;51.364;5.448;2023-04-15T01:39:00;8.30;99.90
8979;DHT22;4524;51.364;5.448;2023-04-15T01:41:28;8.20;99.90
8979;DHT22;4524;51.364;5.448;2023-04-15T01:43:58;8.20;99.90
8979;DHT22;4524;51.364;5.448;2023-04-15T01:46:26;8.20;99.90
8979;DHT22;4524;51.364;5.448;2023-04-15T01:48:54;8.20;99.90
8979;DHT22;4524;51.364;5.448;2023-04-15T01:51:24;8.20;99.90
8979;DHT22;4524;51.364;5.448;2023-04-15T01:53:53;8.20;99.90
8979;DHT22;4524;51.364;5.448;2023-04-15T01:56:22;8.10;99.90
8979;DHT22;4524;51.364;5.448;2023-04-15T01:58:51;8.00;99.90
8979;DHT22;4524;51.364;5.448;2023-04-15T02:01:20;8.00;99.90
8979;DHT22;4524;51.364;5.448;2023-04-15T02:03:48;7.90;99.90
8979;DHT22;4524;51.364;5.448;2023-04-15T02:06:17;7.80;99.90
8979;DHT22;4524;51.364;5.448;2023-04-15T02:08:45;7.80;99.90
8979;DHT22;4524;51.364;5.448;2023-04-15T02:11:13;7.80;99.90
8979;DHT22;4524;51.364;5.448;2023-04-15T02:13:41;7.70;99.90
8979;DHT22;4524;51.364;5.448;2023-04-15T02:16:15;7.70;99.90
8979;DHT22;4524;51.364;5.448;2023-04-15T02:18:45;7.70;99.90
8979;DHT22;4524;51.364;5.448;2023-04-15T02:21:13;7.70;99.90
8979;DHT22;4524;51.364;5.448;2023-04-15T02:23:41;7.80;99.90
8979;DHT22;4524;51.364;5.448;2023-04-15T02:26:12;7.70;99.90
8979;DHT22;4524;51.364;5.448;2023-04-15T02:28:40;7.70;99.90
8979;DHT22;4524;51.364;5.448;2023-04-15T02:31:08;7.80;99.90
8979;DHT22;4524;51.364;5.448;2023-04-15T02:33:36;7.80;99.90
8979;DHT22;4524;51.364;5.448;2023-04-15T02:36:06;7.80;99.90
8979;DHT22;4524;51.364;5.448;2023-04-15T02:38:35;7.80;99.90
8979;DHT22;4524;51.364;5.448;2023-04-15T02:41:04;7.80;99.90
8979;DHT22;4524;51.364;5.448;2023-04-15T02:43:33;7.70;99.90
8979;DHT22;4524;51.364;5.448;2023-04-15T02:46:01;7.70;99.90
8979;DHT22;4524;51.364;5.448;2023-04-15T02:48:29;7.70;99.90
8979;DHT22;4524;51.364;5.448;2023-04-15T02:51:12;7.60;99.90
8979;DHT22;4524;51.364;5.448;2023-04-15T02:53:40;7.60;99.90
8979;DHT22;4524;51.364;5.448;2023-04-15T02:56:08;7.50;99.90
8979;DHT22;4524;51.364;5.448;2023-04-15T02:58:37;7.50;99.90
8979;DHT22;4524;51.364;5.448;2023-04-15T03:01:05;7.60;99.90
8979;DHT22;4524;51.364;5.448;2023-04-15T03:03:34;7.50;99.90
8979;DHT22;4524;51.364;5.448;2023-04-15T03:06:03;7.50;99.90
8979;DHT22;4524;51.364;5.448;2023-04-15T03:08:32;7.50;99.90
8979;DHT22;4524;51.364;5.448;2023-04-15T03:11:00;7.50;99.90
8979;DHT22;4524;51.364;5.448;2023-04-15T03:13:28;7.50;99.90
8979;DHT22;4524;51.364;5.448;2023-04-15T03:15:58;7.50;99.90
8979;DHT22;4524;51.364;5.448;2023-04-15T03:18:26;7.50;99.90
8979;DHT22;4524;51.364;5.448;2023-04-15T03:20:58;7.50;99.90
8979;DHT22;4524;51.364;5.448;2023-04-15T03:23:27;7.50;99.90
8979;DHT22;4524;51.364;5.448;2023-04-15T03:26:00;7.40;99.90
8979;DHT22;4524;51.364;5.448;2023-04-15T03:28:29;7.40;99.90
8979;DHT22;4524;51.364;5.448;2023-04-15T03:30:58;7.40;99.90
8979;DHT22;4524;51.364;5.448;2023-04-15T03:33:27;7.40;99.90
8979;DHT22;4524;51.364;5.448;2023-04-15T03:35:55;7.40;99.90
8979;DHT22;4524;51.364;5.448;2023-04-15T03:38:23;7.30;99.90
8979;DHT22;4524;51.364;5.448;2023-04-15T03:40:51;7.30;99.90
8979;DHT22;4524;51.364;5.448;2023-04-15T03:43:20;7.30;99.90
8979;DHT22;4524;51.364;5.448;2023-04-15T03:45:48;7.20;99.90
8979;DHT22;4524;51.364;5.448;2023-04-15T03:48:16;7.20;99.90
8979;DHT22;4524;51.364;5.448;2023-04-15T03:50:44;7.20;99.90
8979;DHT22;4524;51.364;5.448;2023-04-15T03:53:12;7.20;99.90
8979;DHT22;4524;51.364;5.448;2023-04-15T03:55:40;7.20;99.90
8979;DHT22;4524;51.364;5.448;2023-04-15T03:58:08;7.20;99.90
8979;DHT22;4524;51.364;5.448;2023-04-15T04:00:39;7.20;99.90
8979;DHT22;4524;51.364;5.448;2023-04-15T04:03:08;7.10;99.90
8979;DHT22;4524;51.364;5.448;2023-04-15T04:05:36;7.10;99.90
8979;DHT22;4524;51.364;5.448;2023-04-15T04:08:06;7.10;99.90
8979;DHT22;4524;51.364;5.448;2023-04-15T04:10:34;7.10;99.90
8979;DHT22;4524;51.364;5.448;2023-04-15T04:13:02;7.10;99.90
8979;DHT22;4524;51.364;5.448;2023-04-15T04:15:30;7.10;99.90
8979;DHT22;4524;51.364;5.448;2023-04-15T04:17:59;7.10;99.90
8979;DHT22;4524;51.364;5.448;2023-04-15T04:20:28;7.10;99.90
8979;DHT22;4524;51.364;5.448;2023-04-15T04:22:57;7.00;99.90
8979;DHT22;4524;51.364;5.448;2023-04-15T04:25:25;7.00;99.90
8979;DHT22;4524;51.364;5.448;2023-04-15T04:27:53;6.90;99.90
8979;DHT22;4524;51.364;5.448;2023-04-15T04:30:21;6.90;99.90
8979;DHT22;4524;51.364;5.448;2023-04-15T04:32:49;6.80;99.90
8979;DHT22;4524;51.364;5.448;2023-04-15T04:35:19;6.80;99.90
8979;DHT22;4524;51.364;5.448;2023-04-15T04:37:47;6.80;99.90
8979;DHT22;4524;51.364;5.448;2023-04-15T04:40:15;6.80;99.90
8979;DHT22;4524;51.364;5.448;2023-04-15T04:42:43;6.80;99.90
8979;DHT22;4524;51.364;5.448;2023-04-15T04:45:11;6.80;99.90
8979;DHT22;4524;51.364;5.448;2023-04-15T04:47:39;6.80;99.90
8979;DHT22;4524;51.364;5.448;2023-04-15T04:50:08;6.80;99.90
8979;DHT22;4524;51.364;5.448;2023-04-15T04:52:38;6.70;99.90
8979;DHT22;4524;51.364;5.448;2023-04-15T04:55:06;6.70;99.90
8979;DHT22;4524;51.364;5.448;2023-04-15T04:57:35;6.70;99.90
8979;DHT22;4524;51.364;5.448;2023-04-15T05:00:04;6.70;99.90
8979;DHT22;4524;51.364;5.448;2023-04-15T05:02:32;6.70;99.90
8979;DHT22;4524;51.364;5.448;2023-04-15T05:05:01;6.70;99.90
8979;DHT22;4524;51.364;5.448;2023-04-15T05:07:29;6.60;99.90
8979;DHT22;4524;51.364;5.448;2023-04-15T05:09:58;6.70;99.90
8979;DHT22;4524;51.364;5.448;2023-04-15T05:12:26;6.70;99.90
8979;DHT22;4524;51.364;5.448;2023-04-15T05:14:54;6.80;99.90
8979;DHT22;4524;51.364;5.448;2023-04-15T05:17:22;6.80;99.90
8979;DHT22;4524;51.364;5.448;2023-04-15T05:19:50;6.80;99.90
8979;DHT22;4524;51.364;5.448;2023-04-15T05:22:19;6.80;99.90
8979;DHT22;4524;51.364;5.448;2023-04-15T05:24:47;6.90;99.90
8979;DHT22;4524;51.364;5.448;2023-04-15T05:27:16;6.80;99.90
8979;DHT22;4524;51.364;5.448;2023-04-15T05:29:45;6.90;99.90
8979;DHT22;4524;51.364;5.448;2023-04-15T05:32:13;6.90;99.90
8979;DHT22;4524;51.364;5.448;2023-04-15T05:34:41;6.80;99.90
8979;DHT22;4524;51.364;5.448;2023-04-15T05:37:09;6.90;99.90
8979;DHT22;4524;51.364;5.448;2023-04-15T05:39:37;6.80;99.90
8979;DHT22;4524;51.364;5.448;2023-04-15T05:42:04;6.90;99.90
8979;DHT22;4524;51.364;5.448;2023-04-15T05:44:34;6.90;99.90
8979;DHT22;4524;51.364;5.448;2023-04-15T05:47:02;6.90;99.90
8979;DHT22;4524;51.364;5.448;2023-04-15T05:49:31;6.90;99.90
8979;DHT22;4524;51.364;5.448;2023-04-15T05:51:59;7.00;99.90
8979;DHT22;4524;51.364;5.448;2023-04-15T05:54:27;7.00;99.90
8979;DHT22;4524;51.364;5.448;2023-04-15T05:56:55;7.10;99.90
8979;DHT22;4524;51.364;5.448;2023-04-15T05:59:24;7.00;99.90
8979;DHT22;4524;51.364;5.448;2023-04-15T06:01:54;7.10;99.90
8979;DHT22;4524;51.364;5.448;2023-04-15T06:04:22;7.20;99.90
8979;DHT22;4524;51.364;5.448;2023-04-15T06:06:50;7.30;99.90
8979;DHT22;4524;51.364;5.448;2023-04-15T06:09:18;7.40;99.90
8979;DHT22;4524;51.364;5.448;2023-04-15T06:11:45;7.40;99.90
8979;DHT22;4524;51.364;5.448;2023-04-15T06:14:13;7.50;99.90
8979;DHT22;4524;51.364;5.448;2023-04-15T06:16:41;7.60;99.90
8979;DHT22;4524;51.364;5.448;2023-04-15T06:19:11;7.70;99.90
8979;DHT22;4524;51.364;5.448;2023-04-15T06:21:40;7.80;99.90
8979;DHT22;4524;51.364;5.448;2023-04-15T06:24:08;7.80;99.90
8979;DHT22;4524;51.364;5.448;2023-04-15T06:26:35;8.00;99.90
8979;DHT22;4524;51.364;5.448;2023-04-15T06:29:03;8.10;99.90
8979;DHT22;4524;51.364;5.448;2023-04-15T06:31:31;8.10;99.90
8979;DHT22;4524;51.364;5.448;2023-04-15T06:33:59;8.20;99.90
8979;DHT22;4524;51.364;5.448;2023-04-15T06:36:29;8.30;99.90
8979;DHT22;4524;51.364;5.448;2023-04-15T06:38:58;8.30;99.90
8979;DHT22;4524;51.364;5.448;2023-04-15T06:41:27;8.40;99.90
8979;DHT22;4524;51.364;5.448;2023-04-15T06:43:55;8.50;99.90
8979;DHT22;4524;51.364;5.448;2023-04-15T06:46:23;8.60;99.90
8979;DHT22;4524;51.364;5.448;2023-04-15T06:48:51;8.70;99.90
8979;DHT22;4524;51.364;5.448;2023-04-15T06:51:19;8.80;99.90
8979;DHT22;4524;51.364;5.448;2023-04-15T06:53:48;8.90;99.90
8979;DHT22;4524;51.364;5.448;2023-04-15T06:56:16;9.00;99.90
8979;DHT22;4524;51.364;5.448;2023-04-15T06:58:44;9.10;99.90
8979;DHT22;4524;51.364;5.448;2023-04-15T07:01:12;9.20;99.90
8979;DHT22;4524;51.364;5.448;2023-04-15T07:03:40;9.30;99.90
8979;DHT22;4524;51.364;5.448;2023-04-15T07:06:08;9.40;99.90
8979;DHT22;4524;51.364;5.448;2023-04-15T07:08:36;9.50;99.90
8979;DHT22;4524;51.364;5.448;2023-04-15T07:11:06;9.60;99.90
8979;DHT22;4524;51.364;5.448;2023-04-15T07:13:34;9.60;99.90
8979;DHT22;4524;51.364;5.448;2023-04-15T07:16:02;9.70;99.90
8979;DHT22;4524;51.364;5.448;2023-04-15T07:18:30;9.70;99.90
8979;DHT22;4524;51.364;5.448;2023-04-15T07:20:58;9.80;99.90
8979;DHT22;4524;51.364;5.448;2023-04-15T07:23:26;9.80;99.90
8979;DHT22;4524;51.364;5.448;2023-04-15T07:25:55;9.90;99.90
8979;DHT22;4524;51.364;5.448;2023-04-15T07:28:24;10.00;99.90
8979;DHT22;4524;51.364;5.448;2023-04-15T07:30:52;10.10;99.90
8979;DHT22;4524;51.364;5.448;2023-04-15T07:33:20;10.10;99.90
8979;DHT22;4524;51.364;5.448;2023-04-15T07:35:48;10.20;99.90
8979;DHT22;4524;51.364;5.448;2023-04-15T07:38:16;10.30;99.90
8979;DHT22;4524;51.364;5.448;2023-04-15T07:40:45;10.40;99.90
8979;DHT22;4524;51.364;5.448;2023-04-15T07:43:13;10.60;99.90
8979;DHT22;4524;51.364;5.448;2023-04-15T07:45:42;10.60;99.90
8979;DHT22;4524;51.364;5.448;2023-04-15T07:48:10;10.60;99.90
8979;DHT22;4524;51.364;5.448;2023-04-15T07:50:38;10.80;99.90
8979;DHT22;4524;51.364;5.448;2023-04-15T07:53:06;11.00;99.90
8979;DHT22;4524;51.364;5.448;2023-04-15T07:55:34;10.90;99.90
8979;DHT22;4524;51.364;5.448;2023-04-15T07:58:02;11.00;99.90
8979;DHT22;4524;51.364;5.448;2023-04-15T08:00:30;11.10;99.90
8979;DHT22;4524;51.364;5.448;2023-04-15T08:03:00;11.20;99.90
8979;DHT22;4524;51.364;5.448;2023-04-15T08:05:29;11.30;99.90
8979;DHT22;4524;51.364;5.448;2023-04-15T08:07:56;11.30;99.90
8979;DHT22;4524;51.364;5.448;2023-04-15T08:10:25;11.30;99.90
8979;DHT22;4524;51.364;5.448;2023-04-15T08:12:53;11.40;99.90
8979;DHT22;4524;51.364;5.448;2023-04-15T08:15:22;11.40;99.90
8979;DHT22;4524;51.364;5.448;2023-04-15T08:17:50;11.50;99.90
8979;DHT22;4524;51.364;5.448;2023-04-15T08:20:19;11.50;99.90
8979;DHT22;4524;51.364;5.448;2023-04-15T08:22:47;11.60;99.90
8979;DHT22;4524;51.364;5.448;2023-04-15T08:25:18;11.50;99.90
8979;DHT22;4524;51.364;5.448;2023-04-15T08:27:47;11.60;99.90
8979;DHT22;4524;51.364;5.448;2023-04-15T08:30:15;11.60;99.90
8979;DHT22;4524;51.364;5.448;2023-04-15T08:32:44;11.60;99.90
8979;DHT22;4524;51.364;5.448;2023-04-15T08:35:13;11.60;99.90
8979;DHT22;4524;51.364;5.448;2023-04-15T08:37:44;11.70;99.90
8979;DHT22;4524;51.364;5.448;2023-04-15T08:40:12;11.80;99.90
8979;DHT22;4524;51.364;5.448;2023-04-15T08:42:43;12.00;99.90
8979;DHT22;4524;51.364;5.448;2023-04-15T08:45:17;12.00;99.90
8979;DHT22;4524;51.364;5.448;2023-04-15T08:47:46;12.20;99.90
8979;DHT22;4524;51.364;5.448;2023-04-15T08:50:17;12.50;99.90
8979;DHT22;4524;51.364;5.448;2023-04-15T08:52:53;12.60;99.90
8979;DHT22;4524;51.364;5.448;2023-04-15T08:55:21;12.50;99.90
8979;DHT22;4524;51.364;5.448;2023-04-15T08:57:50;12.70;99.90
8979;DHT22;4524;51.364;5.448;2023-04-15T09:00:18;12.70;99.90
8979;DHT22;4524;51.364;5.448;2023-04-15T09:02:46;12.90;99.90
8979;DHT22;4524;51.364;5.448;2023-04-15T09:05:14;12.90;99.90
8979;DHT22;4524;51.364;5.448;2023-04-15T09:07:43;12.80;99.90
8979;DHT22;4524;51.364;5.448;2023-04-15T09:10:12;12.90;99.90
8979;DHT22;4524;51.364;5.448;2023-04-15T09:12:40;13.10;99.90
8979;DHT22;4524;51.364;5.448;2023-04-15T09:15:10;13.20;99.90
8979;DHT22;4524;51.364;5.448;2023-04-15T09:17:42;13.20;99.90
8979;DHT22;4524;51.364;5.448;2023-04-15T09:20:11;13.30;99.90
8979;DHT22;4524;51.364;5.448;2023-04-15T09:22:40;13.40;99.90
8979;DHT22;4524;51.364;5.448;2023-04-15T09:25:29;13.20;99.90
8979;DHT22;4524;51.364;5.448;2023-04-15T09:28:01;13.00;99.90
8979;DHT22;4524;51.364;5.448;2023-04-15T09:30:29;12.90;99.90
8979;DHT22;4524;51.364;5.448;2023-04-15T09:32:59;13.00;99.90
8979;DHT22;4524;51.364;5.448;2023-04-15T09:35:28;13.00;99.90
8979;DHT22;4524;51.364;5.448;2023-04-15T09:38:01;13.10;99.90
8979;DHT22;4524;51.364;5.448;2023-04-15T09:40:35;13.20;99.90
8979;DHT22;4524;51.364;5.448;2023-04-15T09:43:04;13.10;99.90
8979;DHT22;4524;51.364;5.448;2023-04-15T09:45:34;13.20;99.90
8979;DHT22;4524;51.364;5.448;2023-04-15T09:48:15;13.30;99.90
8979;DHT22;4524;51.364;5.448;2023-04-15T09:50:44;13.30;99.90
8979;DHT22;4524;51.364;5.448;2023-04-15T09:53:15;13.20;99.90
8979;DHT22;4524;51.364;5.448;2023-04-15T09:55:48;13.30;99.90
8979;DHT22;4524;51.364;5.448;2023-04-15T09:58:20;13.30;99.90
8979;DHT22;4524;51.364;5.448;2023-04-15T10:00:50;13.30;99.90
8979;DHT22;4524;51.364;5.448;2023-04-15T10:03:19;13.40;99.90
8979;DHT22;4524;51.364;5.448;2023-04-15T10:05:50;13.50;99.90
8979;DHT22;4524;51.364;5.448;2023-04-15T10:08:20;13.30;99.90
8979;DHT22;4524;51.364;5.448;2023-04-15T10:10:51;13.30;99.90
8979;DHT22;4524;51.364;5.448;2023-04-15T10:13:20;13.50;99.90
8979;DHT22;4524;51.364;5.448;2023-04-15T10:15:51;13.40;99.90
8979;DHT22;4524;51.364;5.448;2023-04-15T10:18:24;13.50;99.90
8979;DHT22;4524;51.364;5.448;2023-04-15T10:20:52;13.40;99.90
8979;DHT22;4524;51.364;5.448;2023-04-15T10:23:21;13.60;99.90
8979;DHT22;4524;51.364;5.448;2023-04-15T10:25:52;13.50;99.90
8979;DHT22;4524;51.364;5.448;2023-04-15T10:28:20;13.40;99.90
8979;DHT22;4524;51.364;5.448;2023-04-15T10:30:49;13.60;99.90
8979;DHT22;4524;51.364;5.448;2023-04-15T10:33:20;13.60;99.90
8979;DHT22;4524;51.364;5.448;2023-04-15T10:35:49;13.80;99.90
8979;DHT22;4524;51.364;5.448;2023-04-15T10:38:42;13.90;99.90
8979;DHT22;4524;51.364;5.448;2023-04-15T10:41:14;14.10;99.90
8979;DHT22;4524;51.364;5.448;2023-04-15T10:43:50;14.00;99.90
8979;DHT22;4524;51.364;5.448;2023-04-15T10:46:21;14.20;99.90
8979;DHT22;4524;51.364;5.448;2023-04-15T10:48:50;14.50;99.90
8979;DHT22;4524;51.364;5.448;2023-04-15T10:51:29;14.70;99.90
8979;DHT22;4524;51.364;5.448;2023-04-15T10:53:58;14.70;99.90
8979;DHT22;4524;51.364;5.448;2023-04-15T10:56:29;14.50;99.90
8979;DHT22;4524;51.364;5.448;2023-04-15T10:58:58;14.30;99.90
8979;DHT22;4524;51.364;5.448;2023-04-15T11:01:55;14.10;99.90
8979;DHT22;4524;51.364;5.448;2023-04-15T11:04:52;13.90;99.90
8979;DHT22;4524;51.364;5.448;2023-04-15T11:07:33;14.20;99.90
8979;DHT22;4524;51.364;5.448;2023-04-15T11:10:01;14.40;99.90
8979;DHT22;4524;51.364;5.448;2023-04-15T11:12:35;14.60;99.90
8979;DHT22;4524;51.364;5.448;2023-04-15T11:15:32;14.50;99.90
8979;DHT22;4524;51.364;5.448;2023-04-15T11:18:09;14.60;99.90
8979;DHT22;4524;51.364;5.448;2023-04-15T11:20:38;14.60;99.90
8979;DHT22;4524;51.364;5.448;2023-04-15T11:23:07;14.80;99.90
8979;DHT22;4524;51.364;5.448;2023-04-15T11:25:41;14.80;99.90
8979;DHT22;4524;51.364;5.448;2023-04-15T11:28:11;15.00;99.90
8979;DHT22;4524;51.364;5.448;2023-04-15T11:30:41;14.60;99.90
8979;DHT22;4524;51.364;5.448;2023-04-15T11:33:11;14.70;99.90
8979;DHT22;4524;51.364;5.448;2023-04-15T11:35:40;14.70;99.90
8979;DHT22;4524;51.364;5.448;2023-04-15T11:38:09;14.80;99.90
8979;DHT22;4524;51.364;5.448;2023-04-15T11:40:39;14.70;99.90
8979;DHT22;4524;51.364;5.448;2023-04-15T11:43:11;14.80;99.90
8979;DHT22;4524;51.364;5.448;2023-04-15T11:45:49;14.90;99.90
8979;DHT22;4524;51.364;5.448;2023-04-15T11:48:21;15.10;99.90
8979;DHT22;4524;51.364;5.448;2023-04-15T11:50:53;15.20;99.90
8979;DHT22;4524;51.364;5.448;2023-04-15T11:53:21;15.10;99.90
8979;DHT22;4524;51.364;5.448;2023-04-15T11:55:51;15.30;99.90
8979;DHT22;4524;51.364;5.448;2023-04-15T11:58:21;15.10;99.90
8979;DHT22;4524;51.364;5.448;2023-04-15T12:00:51;15.30;99.90
8979;DHT22;4524;51.364;5.448;2023-04-15T12:03:22;15.40;99.90
8979;DHT22;4524;51.364;5.448;2023-04-15T12:06:08;15.00;99.90
8979;DHT22;4524;51.364;5.448;2023-04-15T12:08:57;15.00;99.90
8979;DHT22;4524;51.364;5.448;2023-04-15T12:11:31;15.00;99.90
8979;DHT22;4524;51.364;5.448;2023-04-15T12:14:03;15.00;99.90
8979;DHT22;4524;51.364;5.448;2023-04-15T12:16:33;15.00;99.90
8979;DHT22;4524;51.364;5.448;2023-04-15T12:19:14;14.90;99.90
8979;DHT22;4524;51.364;5.448;2023-04-15T12:21:44;14.60;99.90
8979;DHT22;4524;51.364;5.448;2023-04-15T12:24:13;14.80;99.90
8979;DHT22;4524;51.364;5.448;2023-04-15T12:26:45;14.80;99.90
8979;DHT22;4524;51.364;5.448;2023-04-15T12:29:16;14.80;99.90
8979;DHT22;4524;51.364;5.448;2023-04-15T12:31:51;14.90;99.90
8979;DHT22;4524;51.364;5.448;2023-04-15T12:34:26;15.10;99.90
8979;DHT22;4524;51.364;5.448;2023-04-15T12:36:56;15.30;99.90
8979;DHT22;4524;51.364;5.448;2023-04-15T12:39:27;15.50;99.90
8979;DHT22;4524;51.364;5.448;2023-04-15T12:41:56;15.50;99.90
8979;DHT22;4524;51.364;5.448;2023-04-15T12:44:26;15.40;99.90
8979;DHT22;4524;51.364;5.448;2023-04-15T12:46:54;15.50;99.90
8979;DHT22;4524;51.364;5.448;2023-04-15T12:49:23;15.60;99.90
8979;DHT22;4524;51.364;5.448;2023-04-15T12:51:52;15.60;99.90
8979;DHT22;4524;51.364;5.448;2023-04-15T12:54:20;15.20;99.90
8979;DHT22;4524;51.364;5.448;2023-04-15T12:56:49;15.40;99.90
8979;DHT22;4524;51.364;5.448;2023-04-15T12:59:17;15.40;99.90
8979;DHT22;4524;51.364;5.448;2023-04-15T13:01:47;15.60;99.90
8979;DHT22;4524;51.364;5.448;2023-04-15T13:04:15;15.60;99.90
8979;DHT22;4524;51.364;5.448;2023-04-15T13:06:43;15.50;99.90
8979;DHT22;4524;51.364;5.448;2023-04-15T13:09:12;15.40;99.90
8979;DHT22;4524;51.364;5.448;2023-04-15T13:11:40;15.10;99.90
8979;DHT22;4524;51.364;5.448;2023-04-15T13:14:08;15.10;99.90
8979;DHT22;4524;51.364;5.448;2023-04-15T13:16:37;15.10;99.90
8979;DHT22;4524;51.364;5.448;2023-04-15T13:19:06;15.10;99.90
8979;DHT22;4524;51.364;5.448;2023-04-15T13:21:34;15.40;99.90
8979;DHT22;4524;51.364;5.448;2023-04-15T13:24:03;15.60;99.90
8979;DHT22;4524;51.364;5.448;2023-04-15T13:26:33;15.30;99.90
8979;DHT22;4524;51.364;5.448;2023-04-15T13:29:02;15.30;99.90
8979;DHT22;4524;51.364;5.448;2023-04-15T13:31:30;15.10;99.90
8979;DHT22;4524;51.364;5.448;2023-04-15T13:33:58;15.20;99.90
8979;DHT22;4524;51.364;5.448;2023-04-15T13:36:28;15.10;99.90
8979;DHT22;4524;51.364;5.448;2023-04-15T13:38:56;15.20;99.90
8979;DHT22;4524;51.364;5.448;2023-04-15T13:41:25;15.20;99.90
8979;DHT22;4524;51.364;5.448;2023-04-15T13:43:53;15.20;99.90
8979;DHT22;4524;51.364;5.448;2023-04-15T13:46:21;15.10;99.90
8979;DHT22;4524;51.364;5.448;2023-04-15T13:48:49;15.20;99.90
8979;DHT22;4524;51.364;5.448;2023-04-15T13:51:17;15.20;99.90
8979;DHT22;4524;51.364;5.448;2023-04-15T13:53:46;15.00;99.90
8979;DHT22;4524;51.364;5.448;2023-04-15T13:56:14;15.00;99.90
8979;DHT22;4524;51.364;5.448;2023-04-15T13:58:42;14.80;99.90
8979;DHT22;4524;51.364;5.448;2023-04-15T14:01:10;14.80;99.90
8979;DHT22;4524;51.364;5.448;2023-04-15T14:03:38;14.80;99.90
8979;DHT22;4524;51.364;5.448;2023-04-15T14:06:06;14.80;99.90
8979;DHT22;4524;51.364;5.448;2023-04-15T14:08:34;15.00;99.90
8979;DHT22;4524;51.364;5.448;2023-04-15T14:11:03;15.30;99.90
8979;DHT22;4524;51.364;5.448;2023-04-15T14:13:31;15.40;99.90
8979;DHT22;4524;51.364;5.448;2023-04-15T14:15:59;15.30;99.90
8979;DHT22;4524;51.364;5.448;2023-04-15T14:18:27;15.30;99.90
8979;DHT22;4524;51.364;5.448;2023-04-15T14:20:55;15.00;99.90
8979;DHT22;4524;51.364;5.448;2023-04-15T14:23:23;14.70;99.90
8979;DHT22;4524;51.364;5.448;2023-04-15T14:25:52;14.60;99.90
8979;DHT22;4524;51.364;5.448;2023-04-15T14:28:21;14.90;99.90
8979;DHT22;4524;51.364;5.448;2023-04-15T14:30:49;15.20;99.90
8979;DHT22;4524;51.364;5.448;2023-04-15T14:33:17;15.00;99.90
8979;DHT22;4524;51.364;5.448;2023-04-15T14:35:45;15.20;99.90
8979;DHT22;4524;51.364;5.448;2023-04-15T14:38:13;15.50;99.90
8979;DHT22;4524;51.364;5.448;2023-04-15T14:40:41;15.50;99.90
8979;DHT22;4524;51.364;5.448;2023-04-15T14:43:10;15.10;99.90
8979;DHT22;4524;51.364;5.448;2023-04-15T14:45:39;15.20;99.90
8979;DHT22;4524;51.364;5.448;2023-04-15T14:48:11;15.10;99.90
8979;DHT22;4524;51.364;5.448;2023-04-15T14:50:39;15.10;99.90
8979;DHT22;4524;51.364;5.448;2023-04-15T14:53:07;15.40;99.90
8979;DHT22;4524;51.364;5.448;2023-04-15T14:55:36;15.20;99.90
8979;DHT22;4524;51.364;5.448;2023-04-15T14:58:05;15.20;99.90
8979;DHT22;4524;51.364;5.448;2023-04-15T15:00:34;15.10;99.90
8979;DHT22;4524;51.364;5.448;2023-04-15T15:03:06;14.60;99.90
8979;DHT22;4524;51.364;5.448;2023-04-15T15:05:38;14.40;99.90
8979;DHT22;4524;51.364;5.448;2023-04-15T15:08:07;14.20;99.90
8979;DHT22;4524;51.364;5.448;2023-04-15T15:10:35;14.10;99.90
8979;DHT22;4524;51.364;5.448;2023-04-15T15:13:15;14.00;99.90
8979;DHT22;4524;51.364;5.448;2023-04-15T15:15:44;14.00;99.90
8979;DHT22;4524;51.364;5.448;2023-04-15T15:18:13;14.00;99.90
8979;DHT22;4524;51.364;5.448;2023-04-15T15:20:42;14.10;99.90
8979;DHT22;4524;51.364;5.448;2023-04-15T15:23:10;14.30;99.90
8979;DHT22;4524;51.364;5.448;2023-04-15T15:25:38;14.40;99.90
8979;DHT22;4524;51.364;5.448;2023-04-15T15:28:06;14.40;99.90
8979;DHT22;4524;51.364;5.448;2023-04-15T15:30:34;14.30;99.90
8979;DHT22;4524;51.364;5.448;2023-04-15T15:33:01;14.10;99.90
8979;DHT22;4524;51.364;5.448;2023-04-15T15:35:31;13.90;99.90
8979;DHT22;4524;51.364;5.448;2023-04-15T15:37:59;13.80;99.90
8979;DHT22;4524;51.364;5.448;2023-04-15T15:40:27;13.90;99.90
8979;DHT22;4524;51.364;5.448;2023-04-15T15:42:55;14.00;99.90
8979;DHT22;4524;51.364;5.448;2023-04-15T15:45:23;14.00;99.90
8979;DHT22;4524;51.364;5.448;2023-04-15T15:47:51;14.00;99.90
8979;DHT22;4524;51.364;5.448;2023-04-15T15:50:19;14.00;99.90
8979;DHT22;4524;51.364;5.448;2023-04-15T15:52:49;14.10;99.90
8979;DHT22;4524;51.364;5.448;2023-04-15T15:55:17;14.00;99.90
8979;DHT22;4524;51.364;5.448;2023-04-15T15:57:45;14.10;99.90
8979;DHT22;4524;51.364;5.448;2023-04-15T16:00:13;13.90;99.90
8979;DHT22;4524;51.364;5.448;2023-04-15T16:02:41;13.80;99.90
8979;DHT22;4524;51.364;5.448;2023-04-15T16:05:12;13.70;99.90
8979;DHT22;4524;51.364;5.448;2023-04-15T16:07:41;13.50;99.90
8979;DHT22;4524;51.364;5.448;2023-04-15T16:10:10;13.40;99.90
8979;DHT22;4524;51.364;5.448;2023-04-15T16:12:39;13.30;99.90
8979;DHT22;4524;51.364;5.448;2023-04-15T16:15:09;13.50;99.90
8979;DHT22;4524;51.364;5.448;2023-04-15T16:17:37;13.50;99.90
8979;DHT22;4524;51.364;5.448;2023-04-15T16:20:06;13.80;99.90
8979;DHT22;4524;51.364;5.448;2023-04-15T16:22:35;13.80;99.90
8979;DHT22;4524;51.364;5.448;2023-04-15T16:25:03;13.60;99.90